KOAJ Airport Information

Runway Information
Runway 05 Length 7100 ft width 150 ft
Elevation 90 ft Threshold 0 ft Heading 44
Runway 23 Length 7100 ft Width 150 ft
Elevation 92 ft Threshold 0 ft Heading 224
Airport Frequencies
Type A/D Name WILMINGTON Frequency 121.4 MHZ
Type AWOS Name AWOS 3 Frequency 124.475 MHZ
Type UNIC Name CTAF/UNICO Frequency 123 MHZ
Airport Navaids
Airport Weather Information & NOTAM
ADDS - METARS form results

(2246 UTC 22 September 2021)
Data provider http://aviationweather.gov/metar/data/
 
METAR text: KOAJ 222237Z 16003KT 9SM FEW009 BKN013 BKN020 24/23 A2986 RMK AO2
Conditions at: KOAJ (JACKSONVILLE , NC, US) observed 2237 UTC 22 September 2021
Temperature: 24.0°C (75°F)
Dewpoint: 23.0°C (73°F) [RH = 94%]
Pressure (altimeter): 29.86 inches Hg (1011.3 mb)
Winds: from the SSE (160 degrees) at 3 MPH (3 knots; 1.5 m/s)
Visibility: 9 miles (14 km)
Ceiling: 1300 feet AGL
Clouds: few clouds at 900 feet AGL
broken clouds at 1300 feet AGL
broken clouds at 2000 feet AGL
Weather: no significant weather observed at this time

METAR text: KOAJ 222212Z 13006KT 10SM BKN015 BKN020 OVC120 24/23 A2986 RMK AO2
Conditions at: KOAJ (JACKSONVILLE , NC, US) observed 2212 UTC 22 September 2021
Temperature: 24.0°C (75°F)
Dewpoint: 23.0°C (73°F) [RH = 94%]
Pressure (altimeter): 29.86 inches Hg (1011.3 mb)
Winds: from the SE (130 degrees) at 7 MPH (6 knots; 3.1 m/s)
Visibility: 10 or more miles (16+ km)
Ceiling: 1500 feet AGL
Clouds: broken clouds at 1500 feet AGL
broken clouds at 2000 feet AGL
overcast cloud deck at 12000 feet AGL
Weather: no significant weather observed at this time

METAR text: KOAJ 222156Z 15005KT 10SM SCT015 BKN120 24/23 A2987 RMK AO2 RAB02E15 SLP117 P0000 T02440233
Conditions at: KOAJ (JACKSONVILLE , NC, US) observed 2156 UTC 22 September 2021
Temperature: 24.4°C (76°F)
Dewpoint: 23.3°C (74°F) [RH = 94%]
Pressure (altimeter): 29.87 inches Hg (1011.6 mb)
[Sea-level pressure: 1011.7 mb]
Winds: from the SSE (150 degrees) at 6 MPH (5 knots; 2.6 m/s)
Visibility: 10 or more miles (16+ km)
Ceiling: 12000 feet AGL
Clouds: scattered clouds at 1500 feet AGL
broken clouds at 12000 feet AGL
Weather: no significant weather observed at this time

METAR text: KOAJ 222147Z 14007KT 10SM SCT013 BKN120 24/23 A2987 RMK AO2 RAB02E15 P0000
Conditions at: KOAJ (JACKSONVILLE , NC, US) observed 2147 UTC 22 September 2021
Temperature: 24.0°C (75°F)
Dewpoint: 23.0°C (73°F) [RH = 94%]
Pressure (altimeter): 29.87 inches Hg (1011.6 mb)
Winds: from the SE (140 degrees) at 8 MPH (7 knots; 3.6 m/s)
Visibility: 10 or more miles (16+ km)
Ceiling: 12000 feet AGL
Clouds: scattered clouds at 1300 feet AGL
broken clouds at 12000 feet AGL
Weather: no significant weather observed at this time

Forecast for: KOAJ (JACKSONVILLE , NC, US)
Text: KOAJ 222127Z 2221/2318 16007KT P6SM VCSH BKN015
Forecast period: 2100 UTC 22 September 2021 to 0300 UTC 23 September 2021
Forecast type: FROM: standard forecast or significant change
Winds: from the SSE (160 degrees) at 8 MPH (7 knots; 3.6 m/s)
Visibility: 6 or more miles (10+ km)
Ceiling: 1500 feet AGL
Clouds: broken clouds at 1500 feet AGL
Weather: VCSH  (showers in vicinity)
Text: FM230300 16006KT 5SM BR BKN016
Forecast period: 0300 to 0800 UTC 23 September 2021
Forecast type: FROM: standard forecast or significant change
Winds: from the SSE (160 degrees) at 7 MPH (6 knots; 3.1 m/s)
Visibility: 5 miles (8 km)
Ceiling: 1600 feet AGL
Clouds: broken clouds at 1600 feet AGL
Weather: BR  (mist)
Text: FM230800 17007KT 4SM SHRA BR BKN009
Forecast period: 0800 to 1500 UTC 23 September 2021
Forecast type: FROM: standard forecast or significant change
Winds: from the S (170 degrees) at 8 MPH (7 knots; 3.6 m/s)
Visibility: 4 miles (6 km)
Ceiling: 900 feet AGL
Clouds: broken clouds at 900 feet AGL
Weather: SHRA BR  (rain showers, mist)
Text: FM231500 27006KT 5SM BR BKN013 AMD LTD TO CLD VIS AND WIND
Forecast period: 1500 to 1800 UTC 23 September 2021
Forecast type: FROM: standard forecast or significant change
Winds: from the W (270 degrees) at 7 MPH (6 knots; 3.1 m/s)
Visibility: 5 miles (8 km)
Ceiling: 1300 feet AGL
Clouds: broken clouds at 1300 feet AGL
Weather: BR  (mist)